Scroll down
FLIGHT INFORMATION
Swiss International Air Lines

SWR1

At Arrival Gate

KPAE
 LSZH
DATE: 2018-12-30
GATE:  -
GATE DEPARTURE: 16:40
TAKEOFF: 16:50
DATE: 2018-12-31
GATE:  -
LANDING: 02:33
GATE ARRIVAL: 02:39
FLIGHT DATA
Crew: 
Speed: 
944 kph
Altitude: 
43,044 ft
Stage Length: 
8,395.1 km
Block Time: 
9.9 hrs
Flight Time: 
9.7 hrs
Fuel Used: 
86,024 kg
Cleared Route: ALPSE IWACK FOLDY YDC YNY 55N14 DUROT 6195N 6380N YFB DUTUM MUSVA CLAVY 6450N 6340N 6130N 5920N AGORI OSBOX MIMKU SOSIM GIGTO MALUD EPOXI AMPIT RISLA KEPAD TELBA VIDOK PEPUL DISIT TUBSU NANUM NEDEX KIDLI LINDY MID BOGNA BENBO HAWKE XAMAB VEULE INPAX RESMI PEKIM PILUL PIMUP PIXIS PIBAT LUSAR SAUNI LIRKO MOLUS SOSAL TELNO KORED KONOL BERSU
TRACK DATA
50,000 ft 1,000 kts
AIRCRAFT INFO AND CUMULATIVE STATS
Aircraft Type: 
B748
Registration: 
SELCAL: 
MSN/LN: 
0 / 1
Total Flights: 
6
Total Block Time: 
49.7 hrs
Total Flight Time: 
48.1 hrs
Total Fuel Used: 
483,690 kg
DATALINK LOG | Newest first | Current as of: 2022-09-27 09:02:14
LABEL SEQUENCE CONTENT Dn/Up
QD390702:39 29.2▼ Dn
QC334602:33▼ Dn
2U1252LSZH 301850Z 16004KT 090V170 8000 NSC 02/02 Q1034 NOSIG▲ Up
2S4045LSZH▼ Dn
2U4722LSZH 301820Z VRB02KT CAVOK 03/02 Q1035 NOSIG▲ Up
2S5322LSZH▼ Dn
5U3105TAF LSZH 301725Z 3018/3124 VRB03KT CAVOK TX05/3115Z TN01/3104Z BECMG 3018/3021 8000 BKN070 TEMPO 3101/3110 4500 RA BKN014 TEMPO 3115/3124 4500 RA BKN012▲ Up
5S0126LSZH▼ Dn
QB503316:50▼ Dn
QA404716:40 219.1▼ Dn
2U3845KPAE 301553Z 21003KT 10SM OVC060 06/03 A3013 RMK AO2 SLP207 T00560028▲ Up
2S3456KPAE▼ Dn


AIRCRAFT HISTORY
FLIGHT DATE FLIGHT NO. ORIGIN DESTINATION CLEARED ROUTE BLOCK TIME FLIGHT TIME FUEL USED PILOT
2021-09-19SWR919LSZH SEQM LSZH ZH570 ZH577 BREGO ZH554 ZH558 VEBIT ROTOS BADEP ULMES VADAR NINTU MEBAK REPSI TITVA LERGA MOKDI MINSO ROMAK NASEP NARAK AGN DIGPO LATEK PPN MIRPO DGO NEA ZMR ARDID KOMUT 3620N 3130N 2540N 2150N 1855N 1460N GND PERGA DAREK NIKPA OGLAS BUSVI VURAN USOMI OROSU TEPER LOBUV EGOSU DADMU OPNAL ITADI EDSEM AMAYA KEXAN SEKLU UGVIX DADKA DOBLI BOLOM DOVKO ETEMO QIT RW1811.5 hrs11.4 hrs234,406 lbRandall Smith
2021-02-15SWR9885EFHK LSZH EFHK NUNTO PISOX REKDO KOSKA KOLJA ETRUS GOSOT BANUB POBOX TORLO RODEP TIRMI GUDOP PODUS RUPIR SOBLU MAG BARAP GALMA WEMAR ERF NENAN BAMKI VAGAB RATIP ALAXA AMOSA ODEGU DKB GUPIN TEDGO RILAX LSZH2.7 hrs2.4 hrs49,636 lbZsolt Szivak
2020-11-24SWR5128LSZH EFHK LSZH ZH503 ZH506 KOLUL ZH504 ZH525 DEGES TEDGO HAREM LOHRE ARNIX FUL MASEK KEMAD PIBUL MEGAR GESKA KUBIS LEBDA MOSIN GORAX KEMAX NEXIL ROXEN DEKIK VEPIP BEDOS NEFYN MIKNA PELUP TRS TOVRI RIKUM OTKIL BEVOM IPMOT LAKUT MAROM VIBEP HK862 HK947 SOPOS OBONU RW332.6 hrs2.4 hrs54,449 lbPete L.
2020-07-01SWR39KSFO LSZH KSFO TYDYE TRUKN HYPEE ORRCA FIMUV REO DNJ GTF GGRBI YYN YNE 5690N KELMU FEDDY IKMAN KETLA 6350N 6340N 6230N 6120N BALIX NINEX RUGID NEXUS ROKAN TOPPA LIMGO SUTAL LVM POGOL LASAT MIRGU SHARA TUPOV BLM ZH677 GIPOL LSZH10.9 hrs10.5 hrs254,826 lbMark Adeane
2020-06-30SWR38LSZH KSFO LSZH D147A KLO BREGO ZH554 ZH558 VEBIT LASUN LUMEL KUBOM TORPA REKLA RLP ROTSI KOTUN PODUK DIDOR NURMO DIPER VESAN RATUK SOVAT SANDY BIG GOXUL LINDY NORRY CPT KENET UGNUS LANON BADSI ABLIN IRKUM LIPGO SLG PIKIL 5720N 5730N 5640N 5450N NEEKO YRI YUY YXZ HIB FAR DIK DNW BYI LEGGS PYLLE BGGLO LOZIT BDEGA CORKK BRIXX SIDBY RW28L12 hrs11.7 hrs283,389 lbMark Adeane
2018-12-30SWR1KPAE LSZH ALPSE IWACK FOLDY YDC YNY 55N14 DUROT 6195N 6380N YFB DUTUM MUSVA CLAVY 6450N 6340N 6130N 5920N AGORI OSBOX MIMKU SOSIM GIGTO MALUD EPOXI AMPIT RISLA KEPAD TELBA VIDOK PEPUL DISIT TUBSU NANUM NEDEX KIDLI LINDY MID BOGNA BENBO HAWKE XAMAB VEULE INPAX RESMI PEKIM PILUL PIMUP PIXIS PIBAT LUSAR SAUNI LIRKO MOLUS SOSAL TELNO KORED KONOL BERSU9.9 hrs9.7 hrs189,650 lbBig Swede